Time;durP1;ratioP1;P1;durP2;ratioP2;P2;SDS_P1;SDS_P2;PMS_P1;PMS_P2;Temp;Humidity;BMP_temperature;BMP_pressure;BME280_temperature;BME280_humidity;BME280_pressure;Samples;Min_cycle;Max_cycle;Signal;HPM_P1;HPM_P2
2021/12/04 00:00:54;;;;;;;6.97;2.88;;;15.40;90.90;;;;;;1974309;29;20168;-77
2021/12/04 00:01:55;;;;;;;4.30;2.43;;;15.40;90.80;;;;;;1973764;29;20211;-77
2021/12/04 00:02:54;;;;;;;4.45;2.58;;;15.40;90.30;;;;;;1974274;29;20180;-79
2021/12/04 00:03:53;;;;;;;3.13;1.93;;;15.40;91.00;;;;;;1974967;29;20180;-78
2021/12/04 00:04:53;;;;;;;4.43;2.30;;;15.40;90.60;;;;;;1974772;29;20203;-78
2021/12/04 00:05:55;;;;;;;3.80;2.20;;;15.30;90.30;;;;;;1973899;29;20494;-77
2021/12/04 00:06:53;;;;;;;3.88;2.25;;;15.30;91.20;;;;;;1974094;29;20188;-81
2021/12/04 00:07:52;;;;;;;3.80;2.00;;;15.30;91.30;;;;;;1981663;29;20167;-81
2021/12/04 00:08:50;;;;;;;2.43;1.90;;;15.30;87.30;;;;;;1967012;29;20207;-79
2021/12/04 00:09:50;;;;;;;2.90;2.10;;;15.30;88.90;;;;;;1973757;29;20251;-81
2021/12/04 00:10:49;;;;;;;3.13;2.30;;;;;;;;;;1974987;29;20168;-81
2021/12/04 00:11:55;;;;;;;3.77;2.33;;;15.20;90.40;;;;;;1974720;29;20223;-81
2021/12/04 00:12:54;;;;;;;6.60;2.13;;;15.30;84.60;;;;;;1974971;29;20397;-79
2021/12/04 00:13:53;;;;;;;4.67;2.20;;;15.30;85.40;;;;;;1974799;29;20253;-79
2021/12/04 00:14:52;;;;;;;4.27;2.97;;;15.20;90.70;;;;;;1974854;29;20399;-78
2021/12/04 00:15:51;;;;;;;4.00;2.15;;;15.30;86.50;;;;;;1974966;29;20631;-80
2021/12/04 00:16:49;;;;;;;8.03;2.73;;;15.20;86.10;;;;;;1974850;29;20333;-81
2021/12/04 00:17:48;;;;;;;2.93;2.40;;;15.30;86.40;;;;;;1974964;29;20231;-79
2021/12/04 00:18:46;;;;;;;4.20;2.30;;;15.30;85.60;;;;;;1975017;29;20183;-78
2021/12/04 00:19:45;;;;;;;2.40;2.13;;;15.20;85.30;;;;;;1974883;29;20164;-80
2021/12/04 00:20:43;;;;;;;2.90;2.10;;;15.30;85.60;;;;;;1974876;29;20176;-78
2021/12/04 00:21:42;;;;;;;2.87;2.13;;;15.30;84.90;;;;;;1974863;29;20170;-79
2021/12/04 00:22:41;;;;;;;2.73;2.03;;;15.30;84.60;;;;;;1974828;29;20182;-80
2021/12/04 00:23:39;;;;;;;5.70;2.30;;;15.30;84.60;;;;;;1982043;29;20175;-78
2021/12/04 00:24:38;;;;;;;3.50;2.13;;;15.30;84.50;;;;;;1982216;29;20714;-80
2021/12/04 00:25:38;;;;;;;5.63;2.50;;;15.30;84.80;;;;;;1975641;29;20211;-79
2021/12/04 00:26:36;;;;;;;2.05;1.83;;;15.30;84.80;;;;;;1975228;29;20215;-79
2021/12/04 00:27:36;;;;;;;3.87;2.47;;;15.30;84.30;;;;;;1975113;29;20269;-80
2021/12/04 00:28:34;;;;;;;3.28;2.08;;;15.30;84.20;;;;;;1981930;29;20199;-77
2021/12/04 00:29:33;;;;;;;4.40;2.87;;;15.30;84.40;;;;;;1982385;29;20270;-79
2021/12/04 00:30:32;;;;;;;3.37;2.40;;;15.30;84.40;;;;;;1975752;29;20176;-78
2021/12/04 00:31:31;;;;;;;3.30;2.00;;;15.30;84.30;;;;;;1975111;29;20176;-80
2021/12/04 00:33:31;;;;;;;3.40;2.10;;;15.30;84.20;;;;;;1975942;29;20184;-79
2021/12/04 00:34:32;;;;;;;3.47;2.47;;;15.30;84.20;;;;;;1976042;29;20199;-78
2021/12/04 00:36:42;;;;;;;2.47;2.27;;;15.30;84.20;;;;;;1975770;29;20194;-79
2021/12/04 00:43:18;;;;;;;5.00;2.47;;;15.30;84.30;;;;;;1975192;29;20674;-79
2021/12/04 00:49:31;;;;;;;5.45;2.55;;;15.30;84.40;;;;;;1982641;29;20140;-76
2021/12/04 00:50:30;;;;;;;7.67;3.07;;;15.30;84.40;;;;;;1981998;29;20227;-79
2021/12/04 00:51:28;;;;;;;4.63;2.60;;;15.30;84.50;;;;;;1981853;29;20203;-78
2021/12/04 00:52:27;;;;;;;3.10;2.70;;;15.30;84.10;;;;;;1981200;29;20199;-79
2021/12/04 00:53:26;;;;;;;3.93;2.40;;;15.30;83.90;;;;;;1976408;29;20311;-81
2021/12/04 00:54:27;;;;;;;4.63;2.57;;;15.30;83.90;;;;;;1974675;29;20179;-82
2021/12/04 00:55:25;;;;;;;5.25;2.58;;;15.30;84.20;;;;;;1974660;29;20187;-79
2021/12/04 00:56:24;;;;;;;5.80;2.60;;;15.30;84.10;;;;;;1974391;29;20537;-79
2021/12/04 00:57:22;;;;;;;6.20;2.90;;;15.30;84.10;;;;;;1974577;29;20179;-77
2021/12/04 00:58:21;;;;;;;8.67;2.90;;;15.30;84.10;;;;;;1974460;29;20259;-79
2021/12/04 00:59:20;;;;;;;3.77;2.73;;;15.30;84.00;;;;;;1974444;29;20649;-79
2021/12/04 01:00:19;;;;;;;4.40;2.57;;;15.30;84.60;;;;;;1974473;29;20274;-78
2021/12/04 01:01:19;;;;;;;4.07;2.35;;;15.20;84.00;;;;;;1974435;29;20422;-79
2021/12/04 01:02:19;;;;;;;4.53;2.50;;;15.30;84.20;;;;;;1981381;29;20190;-79
2021/12/04 01:03:17;;;;;;;5.15;3.50;;;15.30;83.90;;;;;;1981436;29;20654;-79
2021/12/04 01:04:19;;;;;;;4.57;2.63;;;15.20;84.00;;;;;;1974579;29;20236;-79
2021/12/04 01:05:18;;;;;;;3.67;2.65;;;15.30;84.20;;;;;;1973835;29;20259;-79
2021/12/04 01:06:16;;;;;;;4.17;2.30;;;15.30;84.20;;;;;;1974277;29;20214;-78
2021/12/04 01:07:15;;;;;;;3.70;2.90;;;15.30;84.30;;;;;;1973555;29;20462;-80
2021/12/04 01:08:14;;;;;;;3.63;3.00;;;15.30;84.10;;;;;;1973755;29;20716;-79
2021/12/04 01:09:15;;;;;;;3.37;2.50;;;15.30;84.10;;;;;;1974389;29;20875;-79
2021/12/04 01:10:14;;;;;;;3.63;2.40;;;15.30;84.30;;;;;;1974268;29;20235;-79
2021/12/04 01:11:12;;;;;;;4.97;3.00;;;15.30;84.90;;;;;;1974225;29;20180;-79
2021/12/04 01:12:11;;;;;;;2.87;2.30;;;15.30;84.20;;;;;;1974365;29;20183;-79
2021/12/04 01:13:12;;;;;;;4.20;2.90;;;15.30;84.20;;;;;;1974263;29;20175;-77
2021/12/04 01:14:14;;;;;;;5.88;3.03;;;15.30;84.40;;;;;;1974322;29;20210;-78
2021/12/04 01:15:12;;;;;;;4.70;2.90;;;15.30;84.50;;;;;;1974380;29;20538;-78
2021/12/04 01:16:11;;;;;;;5.87;3.27;;;15.30;84.80;;;;;;1974387;29;20176;-78
2021/12/04 01:17:10;;;;;;;3.90;2.50;;;15.30;84.60;;;;;;1974414;29;20690;-78
2021/12/04 01:18:09;;;;;;;6.10;3.23;;;15.30;84.40;;;;;;1974418;29;20593;-78
2021/12/04 01:19:08;;;;;;;3.95;2.55;;;15.30;84.50;;;;;;1974326;29;20184;-78
2021/12/04 01:20:07;;;;;;;4.77;3.00;;;15.30;85.40;;;;;;1974393;29;20194;-78
2021/12/04 01:21:05;;;;;;;5.73;2.40;;;15.30;85.40;;;;;;1974496;29;20197;-78
2021/12/04 01:22:05;;;;;;;4.20;2.60;;;15.30;84.70;;;;;;1974575;29;20887;-80
2021/12/04 01:23:04;;;;;;;4.90;2.65;;;15.30;84.90;;;;;;1981495;29;20193;-80
2021/12/04 01:24:03;;;;;;;3.50;2.80;;;15.30;85.40;;;;;;1981689;29;20185;-79
2021/12/04 01:25:03;;;;;;;7.60;2.80;;;15.30;85.90;;;;;;1974314;29;20487;-78
2021/12/04 01:26:01;;;;;;;4.72;2.88;;;15.20;85.10;;;;;;1975031;29;20414;-79
2021/12/04 01:27:00;;;;;;;4.03;2.87;;;15.30;84.90;;;;;;1975474;29;20187;-80
2021/12/04 01:27:58;;;;;;;4.20;2.60;;;15.20;84.80;;;;;;1975422;29;20627;-79
2021/12/04 01:28:57;;;;;;;3.37;2.87;;;15.20;84.80;;;;;;1975153;29;20164;-78
2021/12/04 01:29:56;;;;;;;4.30;2.90;;;15.20;84.50;;;;;;1975330;29;20251;-79
2021/12/04 01:30:54;;;;;;;5.17;2.87;;;15.20;86.90;;;;;;1975268;29;20192;-78
2021/12/04 01:31:53;;;;;;;5.27;2.77;;;15.20;86.40;;;;;;1975455;29;20164;-79
2021/12/04 01:32:52;;;;;;;7.13;2.90;;;15.20;82.80;;;;;;1975106;29;20416;-79
2021/12/04 01:33:51;;;;;;;4.97;3.03;;;15.20;80.80;;;;;;1975471;29;20407;-77
2021/12/04 01:34:49;;;;;;;5.07;2.97;;;15.30;84.10;;;;;;1975086;29;20227;-77
2021/12/04 01:35:48;;;;;;;4.50;3.10;;;15.30;84.00;;;;;;1975278;29;20404;-79
2021/12/04 01:36:46;;;;;;;5.70;2.83;;;15.30;84.80;;;;;;1976559;29;20184;-78
2021/12/04 01:37:45;;;;;;;4.90;2.60;;;15.30;83.60;;;;;;1976299;29;20187;-78
2021/12/04 01:38:43;;;;;;;4.37;2.70;;;15.30;81.80;;;;;;1976050;29;20236;-78
2021/12/04 01:39:42;;;;;;;4.30;2.50;;;15.20;86.70;;;;;;1976436;29;20195;-78
2021/12/04 01:40:43;;;;;;;3.90;2.60;;;15.20;85.70;;;;;;1976314;29;20183;-77
2021/12/04 01:41:41;;;;;;;4.13;3.10;;;15.20;86.70;;;;;;1983567;29;20176;-78
2021/12/04 01:42:40;;;;;;;3.30;2.47;;;15.20;86.90;;;;;;1983898;29;20182;-79
2021/12/04 01:43:39;;;;;;;4.83;3.07;;;15.30;86.40;;;;;;1976946;29;20226;-79
2021/12/04 01:44:37;;;;;;;4.23;2.30;;;15.30;86.70;;;;;;1976376;29;20184;-78
2021/12/04 01:45:36;;;;;;;3.50;2.33;;;15.30;88.00;;;;;;1976661;29;20418;-79
2021/12/04 01:46:35;;;;;;;5.57;2.80;;;15.30;86.00;;;;;;1976673;29;20207;-78
2021/12/04 01:47:33;;;;;;;5.70;3.30;;;15.30;85.80;;;;;;1974556;29;20211;-79
2021/12/04 01:48:32;;;;;;;4.17;2.57;;;15.20;86.20;;;;;;1980938;29;20781;-79
2021/12/04 01:49:31;;;;;;;4.00;2.40;;;15.30;86.30;;;;;;1981255;29;20262;-78
2021/12/04 01:50:31;;;;;;;4.33;2.67;;;15.20;85.10;;;;;;1973943;29;20180;-79
2021/12/04 01:51:29;;;;;;;3.65;2.70;;;15.30;85.00;;;;;;1973569;29;20179;-78
2021/12/04 01:52:29;;;;;;;4.03;2.83;;;15.30;84.20;;;;;;1974099;29;20179;-78
2021/12/04 01:53:27;;;;;;;5.15;2.45;;;15.30;84.20;;;;;;1974036;29;20507;-77
2021/12/04 01:54:26;;;;;;;3.00;2.30;;;15.20;84.20;;;;;;1981095;29;20183;-78
2021/12/04 01:55:32;;;;;;;5.10;2.90;;;15.30;84.40;;;;;;1981262;29;20678;-77
2021/12/04 01:56:33;;;;;;;3.85;2.40;;;15.30;84.60;;;;;;1973905;29;20199;-78
2021/12/04 01:57:32;;;;;;;4.28;2.88;;;15.30;83.90;;;;;;1973972;29;20223;-79
2021/12/04 01:58:31;;;;;;;3.07;2.30;;;15.30;84.20;;;;;;1973953;29;20238;-79
2021/12/04 01:59:30;;;;;;;6.60;3.00;;;15.30;84.60;;;;;;1974103;29;20474;-79
2021/12/04 02:00:35;;;;;;;4.95;3.00;;;15.30;84.50;;;;;;1973946;29;20606;-78
2021/12/04 02:01:33;;;;;;;5.78;2.90;;;15.30;84.50;;;;;;1973771;29;20246;-79
2021/12/04 02:02:32;;;;;;;4.30;2.57;;;15.30;84.30;;;;;;1974099;29;20694;-80
2021/12/04 02:03:31;;;;;;;4.07;3.30;;;15.30;84.70;;;;;;1974087;29;20404;-79
2021/12/04 02:04:29;;;;;;;3.93;2.83;;;15.30;84.60;;;;;;1973951;29;20180;-79
2021/12/04 02:05:28;;;;;;;5.07;2.63;;;15.30;84.50;;;;;;1973897;29;20263;-78
2021/12/04 02:06:26;;;;;;;4.50;2.53;;;15.30;84.70;;;;;;1973252;29;20290;-79
2021/12/04 02:07:25;;;;;;;5.80;2.97;;;15.30;84.90;;;;;;1973472;29;20223;-78
2021/12/04 02:08:24;;;;;;;3.60;2.50;;;15.30;85.10;;;;;;1973862;29;20207;-79
2021/12/04 02:09:22;;;;;;;4.20;2.55;;;15.30;85.10;;;;;;1973195;29;20211;-77
2021/12/04 02:10:21;;;;;;;3.73;2.63;;;15.30;85.20;;;;;;1973304;29;20626;-79
2021/12/04 02:11:19;;;;;;;3.07;2.40;;;15.30;85.20;;;;;;1980663;29;20596;-79
2021/12/04 02:12:18;;;;;;;4.93;2.57;;;15.30;85.20;;;;;;1974468;29;20545;-79
2021/12/04 02:13:17;;;;;;;6.40;2.67;;;15.30;85.20;;;;;;1973830;29;20702;-77
2021/12/04 02:14:16;;;;;;;8.18;3.28;;;15.30;85.20;;;;;;1973857;29;20514;-79
2021/12/04 02:15:15;;;;;;;4.50;2.60;;;15.30;84.90;;;;;;1973837;29;20259;-78
2021/12/04 02:16:19;;;;;;;2.40;2.15;;;15.30;84.70;;;;;;1973731;29;20202;-79
2021/12/04 02:17:18;;;;;;;2.92;2.45;;;15.30;85.20;;;;;;1973801;29;20188;-79
2021/12/04 02:18:20;;;;;;;4.10;2.60;;;15.30;85.20;;;;;;1973889;29;20184;-79
2021/12/04 02:19:18;;;;;;;4.25;2.53;;;15.30;85.20;;;;;;1973745;29;20168;-78
2021/12/04 02:20:20;;;;;;;3.70;2.67;;;15.20;85.30;;;;;;1973939;29;20179;-79
2021/12/04 02:21:18;;;;;;;4.57;2.55;;;15.30;85.40;;;;;;1973884;29;20176;-77
2021/12/04 02:22:17;;;;;;;4.07;2.90;;;15.30;85.90;;;;;;1973857;29;20179;-78
2021/12/04 02:23:16;;;;;;;3.93;2.57;;;15.30;87.20;;;;;;1973898;29;20172;-78
2021/12/04 02:24:14;;;;;;;4.00;2.90;;;15.30;86.90;;;;;;1973753;29;20182;-78
2021/12/04 02:25:13;;;;;;;3.17;2.20;;;15.30;86.60;;;;;;1973810;29;20413;-78
2021/12/04 02:26:13;;;;;;;4.13;2.80;;;15.40;85.70;;;;;;1973886;29;20235;-79
2021/12/04 02:27:13;;;;;;;3.70;2.72;;;15.30;86.90;;;;;;1973728;29;20180;-78
2021/12/04 02:28:12;;;;;;;3.97;2.30;;;15.40;81.10;;;;;;1973804;29;20196;-79
2021/12/04 02:29:10;;;;;;;4.28;2.40;;;15.40;84.90;;;;;;1973892;29;20267;-78
2021/12/04 02:30:14;;;;;;;5.53;2.90;;;15.30;86.20;;;;;;1973831;29;20541;-79
2021/12/04 02:31:13;;;;;;;5.20;2.67;;;15.40;86.20;;;;;;1981014;29;20221;-79
2021/12/04 02:32:11;;;;;;;5.00;2.93;;;15.40;85.50;;;;;;1981024;29;20230;-80
2021/12/04 02:33:14;;;;;;;4.43;2.60;;;15.40;85.50;;;;;;1974330;29;20589;-79
2021/12/04 02:34:19;;;;;;;2.85;2.47;;;15.40;86.20;;;;;;1973960;29;20532;-80
2021/12/04 02:35:19;;;;;;;3.70;2.72;;;15.40;86.90;;;;;;1973673;29;20275;-79
2021/12/04 02:36:17;;;;;;;5.25;2.47;;;15.40;86.80;;;;;;1973675;29;20251;-80
2021/12/04 02:37:16;;;;;;;3.90;2.50;;;15.40;85.70;;;;;;1973807;29;20180;-80
2021/12/04 02:38:16;;;;;;;3.57;2.90;;;15.30;87.10;;;;;;1973862;29;20589;-80
2021/12/04 02:39:35;;;;;;;4.00;2.88;;;15.30;87.30;;;;;;1973663;29;20203;-81
2021/12/04 02:40:34;;;;;;;4.63;3.05;;;15.30;88.70;;;;;;1973097;29;20186;-78
2021/12/04 02:41:33;;;;;;;2.42;2.10;;;15.30;87.60;;;;;;1973078;29;20297;-79
2021/12/04 02:42:31;;;;;;;4.00;2.57;;;15.30;87.30;;;;;;1973715;29;20521;-78
2021/12/04 02:43:34;;;;;;;3.00;2.43;;;15.40;87.30;;;;;;1973195;29;20286;-79
2021/12/04 02:44:40;;;;;;;3.97;2.78;;;15.30;87.50;;;;;;1973298;29;20183;-79
2021/12/04 02:45:42;;;;;;;3.63;2.53;;;15.40;87.80;;;;;;1973753;29;20206;-79
2021/12/04 02:46:40;;;;;;;4.20;2.80;;;15.40;88.70;;;;;;1973633;29;20194;-80
2021/12/04 02:47:39;;;;;;;4.60;2.90;;;15.40;88.40;;;;;;1980595;29;20634;-79
2021/12/04 02:48:38;;;;;;;4.40;2.80;;;15.30;89.10;;;;;;1980915;29;20673;-80
2021/12/04 02:49:37;;;;;;;6.10;3.03;;;15.30;89.10;;;;;;1974091;29;20176;-78
2021/12/04 02:50:35;;;;;;;4.90;2.73;;;15.30;87.50;;;;;;1973688;29;20175;-81
2021/12/04 02:51:34;;;;;;;5.70;2.87;;;15.40;87.70;;;;;;1973836;29;20312;-80
2021/12/04 02:52:34;;;;;;;3.60;2.63;;;15.40;87.60;;;;;;1973848;29;20184;-80
2021/12/04 02:53:33;;;;;;;3.35;2.55;;;15.40;87.30;;;;;;1973794;29;20183;-80
2021/12/04 02:54:33;;;;;;;4.88;2.95;;;15.40;87.30;;;;;;1973101;29;20179;-79
2021/12/04 02:55:32;;;;;;;4.03;2.90;;;15.40;87.10;;;;;;1973107;29;20687;-79
2021/12/04 02:56:30;;;;;;;5.67;2.93;;;15.40;87.60;;;;;;1980363;29;20195;-78
2021/12/04 02:57:30;;;;;;;3.50;2.50;;;15.40;87.50;;;;;;1980887;29;20403;-78
2021/12/04 02:58:28;;;;;;;3.58;3.25;;;15.30;87.60;;;;;;1974238;29;20259;-79
2021/12/04 02:59:27;;;;;;;5.70;2.90;;;15.30;87.90;;;;;;1973739;29;20521;-80
2021/12/04 03:00:26;;;;;;;3.63;2.60;;;15.40;88.00;;;;;;1973589;29;20179;-79
2021/12/04 03:01:24;;;;;;;5.40;3.27;;;15.40;88.60;;;;;;1973886;29;20435;-78
2021/12/04 03:02:23;;;;;;;3.80;2.20;;;15.40;88.20;;;;;;1973465;29;20495;-79
2021/12/04 03:03:22;;;;;;;5.10;3.40;;;15.40;88.50;;;;;;1973583;29;20219;-80
2021/12/04 03:04:23;;;;;;;4.20;2.80;;;15.40;88.00;;;;;;1973704;29;20254;-79
2021/12/04 03:05:24;;;;;;;4.45;2.90;;;15.40;89.00;;;;;;1973676;29;20226;-79
2021/12/04 03:06:22;;;;;;;4.38;2.65;;;15.40;88.10;;;;;;1980591;29;20232;-78
2021/12/04 03:07:22;;;;;;;4.20;2.83;;;15.40;88.60;;;;;;1980814;29;20190;-80
2021/12/04 03:08:22;;;;;;;4.15;2.97;;;15.40;90.00;;;;;;1973968;29;20286;-79
2021/12/04 03:09:20;;;;;;;4.22;2.45;;;15.30;90.30;;;;;;1973560;29;20187;-80
2021/12/04 03:10:19;;;;;;;4.03;2.93;;;15.40;90.40;;;;;;1973573;29;20179;-79
2021/12/04 03:11:18;;;;;;;5.35;2.85;;;15.30;90.30;;;;;;1973630;29;20182;-80
2021/12/04 03:12:19;;;;;;;3.37;2.50;;;15.40;89.80;;;;;;1973700;29;20179;-78
2021/12/04 03:13:20;;;;;;;3.67;2.55;;;15.30;90.00;;;;;;1973624;29;20206;-78
2021/12/04 03:14:20;;;;;;;4.78;2.70;;;15.30;88.20;;;;;;1973832;29;20179;-78
2021/12/04 03:15:21;;;;;;;4.35;3.42;;;15.30;89.40;;;;;;1980657;29;20175;-80
2021/12/04 03:16:19;;;;;;;2.67;2.22;;;15.40;89.50;;;;;;1980690;29;20194;-80
2021/12/04 03:17:20;;;;;;;5.37;3.00;;;15.40;89.30;;;;;;1973845;29;20709;-79
2021/12/04 03:18:18;;;;;;;6.65;2.88;;;15.30;89.10;;;;;;1980654;29;20191;-78
2021/12/04 03:19:18;;;;;;;4.70;2.70;;;15.30;88.60;;;;;;1980838;29;20562;-79
2021/12/04 03:20:17;;;;;;;3.22;2.35;;;15.40;89.10;;;;;;1974019;29;20187;-79
2021/12/04 03:21:15;;;;;;;5.93;3.47;;;15.30;88.60;;;;;;1972926;29;20618;-79
2021/12/04 03:22:15;;;;;;;4.87;3.20;;;15.30;88.40;;;;;;1973170;29;20655;-79
2021/12/04 03:23:28;;;;;;;8.02;2.75;;;15.30;88.90;;;;;;1973536;29;20180;-80
2021/12/04 03:24:27;;;;;;;3.55;2.83;;;15.30;88.60;;;;;;1973679;29;20207;-79
2021/12/04 03:25:26;;;;;;;4.72;2.55;;;15.30;88.10;;;;;;1973579;29;20183;-78
2021/12/04 03:26:25;;;;;;;4.63;2.93;;;15.30;88.20;;;;;;1980517;29;20698;-80
2021/12/04 03:27:24;;;;;;;4.00;2.92;;;15.30;87.60;;;;;;1980589;28;20581;-79
2021/12/04 03:28:23;;;;;;;2.83;2.47;;;15.40;87.40;;;;;;1974758;29;20203;-79
2021/12/04 03:29:27;;;;;;;2.97;2.50;;;15.30;87.30;;;;;;1975059;29;20507;-78
2021/12/04 03:30:37;;;;;;;5.68;3.10;;;15.30;87.30;;;;;;1975150;29;20170;-79
2021/12/04 03:35:15;;;;;;;4.85;2.80;;;15.30;87.00;;;;;;1975346;29;20168;-78
2021/12/04 03:41:08;;;;;;;3.47;2.80;;;15.30;86.30;;;;;;1974569;29;20535;-80
2021/12/04 03:42:07;;;;;;;2.97;2.10;;;15.30;86.30;;;;;;1974781;29;20263;-81
2021/12/04 03:43:08;;;;;;;4.82;3.20;;;15.30;86.40;;;;;;1974971;29;20186;-79
2021/12/04 03:44:07;;;;;;;3.13;2.10;;;15.30;86.00;;;;;;1975071;29;20176;-79
2021/12/04 03:45:08;;;;;;;3.17;2.37;;;15.30;86.30;;;;;;1974941;29;20581;-80
2021/12/04 03:46:09;;;;;;;4.28;2.58;;;15.30;86.20;;;;;;1974955;29;20659;-80
2021/12/04 03:47:09;;;;;;;4.22;2.80;;;15.30;86.30;;;;;;1975000;29;20183;-81
2021/12/04 03:48:39;;;;;;;2.63;2.33;;;15.30;86.40;;;;;;1974659;29;20358;-81
2021/12/04 03:49:32;;;;;;;3.53;2.67;;;15.40;86.50;;;;;;1974930;29;20190;-81
2021/12/04 03:50:31;;;;;;;3.53;2.40;;;15.40;86.80;;;;;;1974923;29;20683;-80
2021/12/04 03:51:29;;;;;;;3.60;2.63;;;15.30;86.50;;;;;;1975028;29;20182;-81
2021/12/04 03:52:28;;;;;;;3.00;2.67;;;15.30;86.90;;;;;;1974968;29;20232;-80
2021/12/04 03:53:26;;;;;;;3.70;2.53;;;15.30;86.60;;;;;;1981911;29;20182;-79
2021/12/04 03:54:25;;;;;;;3.60;2.63;;;15.30;86.30;;;;;;1982013;29;20199;-79
2021/12/04 03:55:25;;;;;;;3.13;2.17;;;15.30;86.50;;;;;;1981828;29;20266;-79
2021/12/04 03:56:24;;;;;;;5.57;2.85;;;15.30;86.70;;;;;;1981929;29;20789;-79
2021/12/04 03:57:22;;;;;;;5.53;3.08;;;15.30;86.50;;;;;;1975185;29;20176;-78
2021/12/04 03:58:22;;;;;;;4.40;2.83;;;15.40;86.50;;;;;;1974258;29;20532;-79
2021/12/04 03:59:20;;;;;;;4.80;3.10;;;15.40;86.10;;;;;;1974278;29;20215;-79
2021/12/04 04:00:20;;;;;;;2.90;2.33;;;15.30;86.20;;;;;;1981520;29;20569;-79
2021/12/04 04:01:19;;;;;;;3.67;2.72;;;15.40;86.40;;;;;;1974346;29;20186;-80
2021/12/04 04:02:17;;;;;;;5.27;2.80;;;15.40;86.80;;;;;;1974189;29;20179;-80
2021/12/04 04:03:16;;;;;;;2.83;2.30;;;15.40;86.80;;;;;;1981346;29;20453;-78
2021/12/04 04:04:14;;;;;;;5.33;3.10;;;15.30;86.40;;;;;;1975484;29;20231;-77
2021/12/04 04:05:13;;;;;;;4.83;3.13;;;15.40;87.00;;;;;;1974752;29;20368;-79
2021/12/04 04:06:12;;;;;;;3.30;2.47;;;15.30;86.90;;;;;;1974912;29;21776;-79
2021/12/04 04:07:11;;;;;;;3.23;2.43;;;15.40;87.30;;;;;;1974790;29;20344;-78
2021/12/04 04:08:14;;;;;;;3.73;2.33;;;15.30;86.50;;;;;;1974748;29;20459;-78
2021/12/04 04:09:12;;;;;;;3.65;2.78;;;15.30;84.80;;;;;;1981714;29;20178;-79
2021/12/04 04:10:11;;;;;;;4.53;2.57;;;15.40;85.40;;;;;;1981901;29;20171;-78
2021/12/04 04:11:09;;;;;;;3.57;2.47;;;15.30;86.00;;;;;;1975272;29;20207;-79
2021/12/04 04:12:08;;;;;;;5.30;2.90;;;15.40;85.70;;;;;;1974715;29;20179;-78
2021/12/04 04:13:08;;;;;;;3.70;2.60;;;15.30;85.20;;;;;;1974734;29;20553;-79
2021/12/04 04:14:07;;;;;;;4.25;3.00;;;15.30;85.20;;;;;;1974158;29;20180;-78
2021/12/04 04:15:06;;;;;;;3.00;2.20;;;15.30;85.30;;;;;;1974013;29;20552;-79
2021/12/04 04:16:05;;;;;;;4.88;2.67;;;15.40;85.50;;;;;;1981388;29;20442;-78
2021/12/04 04:17:04;;;;;;;4.07;3.10;;;15.30;85.40;;;;;;1975044;29;20254;-79
2021/12/04 04:18:02;;;;;;;4.93;2.70;;;15.40;86.40;;;;;;1974808;29;20172;-81
2021/12/04 04:19:01;;;;;;;3.70;2.67;;;15.40;87.20;;;;;;1973948;29;20416;-79
2021/12/04 04:19:59;;;;;;;4.20;2.60;;;15.40;86.50;;;;;;1974148;29;20179;-81
2021/12/04 04:20:59;;;;;;;4.20;2.80;;;15.40;86.70;;;;;;1981233;29;20299;-78
2021/12/04 04:21:58;;;;;;;4.43;2.88;;;15.40;86.50;;;;;;1981688;29;20171;-80
2021/12/04 04:22:57;;;;;;;4.30;2.90;;;15.40;87.10;;;;;;1975023;29;20172;-79
2021/12/04 04:23:55;;;;;;;4.70;2.80;;;15.30;88.00;;;;;;1974704;29;20172;-80
2021/12/04 04:24:54;;;;;;;4.77;2.63;;;15.30;88.20;;;;;;1974655;29;20176;-78
2021/12/04 04:25:53;;;;;;;3.33;2.50;;;15.30;88.30;;;;;;1974697;29;20207;-80
2021/12/04 04:26:52;;;;;;;3.75;2.90;;;15.40;87.80;;;;;;1974585;29;20180;-79
2021/12/04 04:27:51;;;;;;;4.05;2.42;;;15.40;88.40;;;;;;1974717;29;20258;-80
2021/12/04 04:28:49;;;;;;;3.53;3.00;;;15.40;88.40;;;;;;1981662;29;20222;-80
2021/12/04 04:29:48;;;;;;;3.57;2.70;;;15.40;89.20;;;;;;1981723;29;20525;-79
2021/12/04 04:30:47;;;;;;;5.60;3.10;;;15.30;88.30;;;;;;1975164;29;20180;-79
2021/12/04 04:31:47;;;;;;;2.72;2.15;;;15.40;88.30;;;;;;1974490;29;20172;-78
2021/12/04 04:32:48;;;;;;;4.38;2.70;;;15.40;87.20;;;;;;1974683;29;20168;-80
2021/12/04 04:33:46;;;;;;;4.82;3.03;;;15.40;87.80;;;;;;1974630;29;20519;-80
2021/12/04 04:34:51;;;;;;;3.00;2.40;;;15.40;88.80;;;;;;1974730;29;20175;-77
2021/12/04 04:36:07;;;;;;;3.22;2.55;;;15.30;90.10;;;;;;1974605;29;20512;-78
2021/12/04 04:38:30;;;;;;;4.22;2.92;;;15.10;93.30;;;;;;1974675;29;20183;-79
2021/12/04 04:57:41;;;;;;;4.15;2.92;;;15.30;87.70;;;;;;1974515;29;20160;-78
2021/12/04 05:11:58;;;;;;;5.70;3.15;;;15.20;88.40;;;;;;1974441;29;20171;-80
2021/12/04 05:13:00;;;;;;;6.07;3.55;;;15.20;89.60;;;;;;1974452;29;20235;-78
2021/12/04 05:13:59;;;;;;;4.55;2.75;;;15.20;89.20;;;;;;1973654;29;20180;-78
2021/12/04 05:15:00;;;;;;;3.57;2.87;;;15.30;90.20;;;;;;1973861;29;20179;-79
2021/12/04 05:16:10;;;;;;;3.30;2.50;;;15.30;90.20;;;;;;1974210;29;20247;-79
2021/12/04 05:17:27;;;;;;;4.40;3.20;;;15.30;90.30;;;;;;1974433;29;20179;-79
2021/12/04 05:19:28;;;;;;;2.92;2.63;;;15.30;89.30;;;;;;1974361;29;20180;-80
2021/12/04 05:20:33;;;;;;;3.63;3.00;;;15.30;90.10;;;;;;1974195;29;20171;-79
2021/12/04 05:21:32;;;;;;;6.15;3.03;;;15.30;89.80;;;;;;1973677;29;20231;-78
2021/12/04 05:22:32;;;;;;;5.10;2.83;;;15.30;89.90;;;;;;1973828;29;20238;-79
2021/12/04 05:23:46;;;;;;;5.18;3.47;;;15.30;89.10;;;;;;1974222;29;20547;-80
2021/12/04 05:24:45;;;;;;;3.85;2.85;;;15.40;88.80;;;;;;1974398;29;20176;-80
2021/12/04 05:25:43;;;;;;;3.90;2.97;;;15.30;87.70;;;;;;1974388;29;20171;-80
2021/12/04 05:26:42;;;;;;;3.67;2.30;;;15.30;88.30;;;;;;1974303;29;20282;-78
2021/12/04 05:27:42;;;;;;;4.23;3.13;;;15.30;89.50;;;;;;1974815;29;20176;-80
2021/12/04 05:28:42;;;;;;;5.55;3.20;;;15.30;89.90;;;;;;1974506;29;20219;-80
2021/12/04 05:29:41;;;;;;;3.97;3.40;;;15.30;90.10;;;;;;1974721;29;20517;-79
2021/12/04 05:30:40;;;;;;;3.08;2.78;;;15.30;90.40;;;;;;1974446;29;20167;-80
2021/12/04 05:31:38;;;;;;;4.97;3.00;;;15.30;90.50;;;;;;1974422;29;20716;-80
2021/12/04 05:32:37;;;;;;;3.20;2.50;;;15.30;91.00;;;;;;1974277;29;20218;-80
2021/12/04 05:33:36;;;;;;;3.00;2.37;;;15.30;91.10;;;;;;1974466;29;20176;-80
2021/12/04 05:34:36;;;;;;;5.07;2.75;;;;;;;;;;1974265;29;20184;-80
2021/12/04 05:35:34;;;;;;;3.38;3.03;;;14.80;91.60;;;;;;1974200;29;20172;-80
2021/12/04 05:36:33;;;;;;;3.90;2.53;;;;;;;;;;1974217;29;20283;-79
2021/12/04 05:37:32;;;;;;;4.17;3.03;;;15.50;91.80;;;;;;1974379;29;20208;-79
2021/12/04 05:38:30;;;;;;;10.60;2.67;;;15.30;91.60;;;;;;1974290;29;20494;-80
2021/12/04 05:39:29;;;;;;;4.53;3.00;;;15.50;92.60;;;;;;1974337;29;20183;-80
2021/12/04 05:40:28;;;;;;;3.67;2.80;;;15.30;92.50;;;;;;1975597;29;20184;-80
2021/12/04 05:41:27;;;;;;;4.30;2.75;;;15.40;91.00;;;;;;1983638;29;20247;-79
2021/12/04 05:42:26;;;;;;;4.10;2.63;;;;;;;;;;1984985;29;20273;-78
2021/12/04 05:43:25;;;;;;;3.30;2.77;;;15.40;91.50;;;;;;1980073;29;20202;-79
2021/12/04 05:44:25;;;;;;;4.97;2.85;;;;;;;;;;1980382;29;20490;-77
2021/12/04 05:45:25;;;;;;;3.78;2.67;;;15.40;91.20;;;;;;1980096;29;20179;-80
2021/12/04 05:46:27;;;;;;;3.22;2.40;;;15.40;90.80;;;;;;1979392;29;20195;-79
2021/12/04 05:47:40;;;;;;;4.75;2.70;;;15.40;92.70;;;;;;1978403;29;20223;-80
2021/12/04 05:48:47;;;;;;;3.00;2.58;;;15.30;93.70;;;;;;1974395;29;20352;-80
2021/12/04 05:49:54;;;;;;;3.72;2.67;;;15.40;91.90;;;;;;1974077;29;20211;-80
2021/12/04 05:53:41;;;;;;;4.70;2.45;;;15.40;86.90;;;;;;1974251;29;20411;-80
2021/12/04 05:55:52;;;;;;;3.60;2.43;;;15.40;87.50;;;;;;1973847;29;20187;-79
2021/12/04 05:56:50;;;;;;;3.67;2.47;;;15.40;87.30;;;;;;1974196;29;20156;-79
2021/12/04 05:57:49;;;;;;;3.17;2.37;;;15.40;86.80;;;;;;1973761;29;20176;-78
2021/12/04 05:58:48;;;;;;;2.83;2.40;;;15.40;86.80;;;;;;1973484;29;20179;-79
2021/12/04 05:59:47;;;;;;;4.18;2.50;;;15.40;87.30;;;;;;1974147;29;20231;-80
2021/12/04 06:00:46;;;;;;;4.65;3.17;;;15.40;87.50;;;;;;1973916;29;20178;-78
2021/12/04 06:01:45;;;;;;;3.53;2.90;;;15.40;87.00;;;;;;1974079;29;20718;-80
2021/12/04 06:02:43;;;;;;;2.30;2.03;;;15.40;87.80;;;;;;1974018;29;20172;-79
2021/12/04 06:03:42;;;;;;;5.07;2.67;;;15.40;86.80;;;;;;1974055;29;20176;-79
2021/12/04 06:04:41;;;;;;;3.60;2.90;;;15.40;86.90;;;;;;1974035;29;20239;-80
2021/12/04 06:05:39;;;;;;;5.20;2.87;;;15.40;87.00;;;;;;1973948;29;20411;-79
2021/12/04 06:06:38;;;;;;;4.30;3.43;;;15.40;87.20;;;;;;1973941;29;20223;-80
2021/12/04 06:07:36;;;;;;;5.03;3.00;;;15.40;87.80;;;;;;1973941;29;20197;-80
2021/12/04 06:08:35;;;;;;;4.33;2.70;;;15.40;88.80;;;;;;1973849;29;20203;-79
2021/12/04 06:09:33;;;;;;;3.00;2.23;;;15.40;90.30;;;;;;1974028;29;20212;-80
2021/12/04 06:10:32;;;;;;;3.73;2.47;;;15.40;90.50;;;;;;1973805;29;20176;-80
2021/12/04 06:11:32;;;;;;;3.67;3.00;;;15.40;91.50;;;;;;1974177;29;20172;-79